createdAt,value
2023-03-10T00:01:40.248Z,117.07
2023-03-10T00:04:08.167Z,134.02
2023-03-10T00:06:36.439Z,137.35
2023-03-10T00:09:04.317Z,119.72
2023-03-10T00:11:32.294Z,107.10
2023-03-10T00:14:00.474Z,114.55
2023-03-10T00:16:30.270Z,142.48
2023-03-10T00:18:58.213Z,105.70
2023-03-10T00:21:28.347Z,104.18
2023-03-10T00:26:24.700Z,89.40
2023-03-10T00:28:52.564Z,101.10
2023-03-10T00:31:23.511Z,109.60
2023-03-10T00:33:52.376Z,86.78
2023-03-10T00:36:23.973Z,92.05
2023-03-10T00:38:52.483Z,91.95
2023-03-10T00:41:21.750Z,75.68
2023-03-10T00:43:49.559Z,91.57
2023-03-10T00:46:17.771Z,68.13
2023-03-10T00:48:45.599Z,79.75
2023-03-10T00:51:13.565Z,60.10
2023-03-10T00:53:41.958Z,86.78
2023-03-10T00:56:16.446Z,71.68
2023-03-10T00:58:44.436Z,51.42
2023-03-10T01:01:22.857Z,61.10
2023-03-10T01:03:54.397Z,22.85
2023-03-10T01:06:22.311Z,21.92
2023-03-10T01:08:50.240Z,52.70
2023-03-10T01:11:21.764Z,38.30
2023-03-10T01:13:49.642Z,43.28
2023-03-10T01:16:17.568Z,58.10
2023-03-10T01:18:45.208Z,32.90
2023-03-10T01:21:21.090Z,24.50
2023-03-10T01:23:49.042Z,49.05
2023-03-10T01:26:18.552Z,53.97
2023-03-10T01:28:47.088Z,28.02
2023-03-10T01:31:15.288Z,47.80
2023-03-10T01:33:43.841Z,69.65
2023-03-10T01:36:14.083Z,54.30
2023-03-10T01:41:09.847Z,26.48
2023-03-10T01:43:39.851Z,33.65
2023-03-10T01:46:07.618Z,50.50
2023-03-10T01:48:37.126Z,40.90
2023-03-10T01:51:05.590Z,43.58
2023-03-10T01:53:34.068Z,33.50
2023-03-10T01:56:06.393Z,39.25
2023-03-10T01:58:36.197Z,62.88
2023-03-10T02:01:04.119Z,69.53
2023-03-10T02:03:47.044Z,49.33
2023-03-10T02:06:15.730Z,78.82
2023-03-10T02:08:44.735Z,39.70
2023-03-10T02:11:12.905Z,73.18
2023-03-10T02:13:41.554Z,79.53
2023-03-10T02:16:09.442Z,67.60
2023-03-10T02:18:37.466Z,81.80
2023-03-10T02:21:29.306Z,86.35
2023-03-10T02:24:01.617Z,102.80
2023-03-10T02:27:09.234Z,66.57
2023-03-10T02:29:59.406Z,60.20
2023-03-10T02:32:27.991Z,70.15
2023-03-10T02:34:55.949Z,79.82
2023-03-10T02:37:25.466Z,86.85
2023-03-10T02:39:53.441Z,87.18
2023-03-10T02:42:23.076Z,79.57
2023-03-10T02:44:50.891Z,67.35
2023-03-10T02:47:18.550Z,71.70
2023-03-10T02:49:46.431Z,65.78
2023-03-10T02:52:56.527Z,45.47
2023-03-10T02:55:24.340Z,45.30
2023-03-10T02:57:52.139Z,61.38
2023-03-10T03:00:20.028Z,43.33
2023-03-10T03:02:47.981Z,46.92
2023-03-10T03:05:15.749Z,30.30
2023-03-10T03:07:43.507Z,34.95
2023-03-10T03:10:11.586Z,28.77
2023-03-10T03:12:39.896Z,19.60
2023-03-10T03:15:08.508Z,45.45
2023-03-10T03:17:36.502Z,50.50
2023-03-10T03:20:11.901Z,17.50
2023-03-10T03:22:40.036Z,53.97
2023-03-10T03:25:07.942Z,49.40
2023-03-10T03:27:35.655Z,38.72
2023-03-10T03:30:03.630Z,37.80
2023-03-10T03:32:31.677Z,48.08
2023-03-10T03:35:00.040Z,46.78
2023-03-10T03:37:27.825Z,38.22
2023-03-10T03:39:55.714Z,106.13
2023-03-10T03:42:23.560Z,42.08
2023-03-10T03:44:51.387Z,49.28
2023-03-10T03:47:19.194Z,50.63
2023-03-10T03:49:46.965Z,30.08
2023-03-10T03:52:14.771Z,54.22
2023-03-10T03:54:42.574Z,61.80
2023-03-10T03:57:10.407Z,38.08
2023-03-10T03:59:38.248Z,58.28
2023-03-10T04:02:06.090Z,50.75
2023-03-10T04:04:33.927Z,63.40
2023-03-10T04:07:01.885Z,74.53
2023-03-10T04:09:29.843Z,57.92
2023-03-10T04:11:58.114Z,67.80
2023-03-10T04:14:26.492Z,58.53
2023-03-10T04:16:54.294Z,81.40
2023-03-10T04:19:22.164Z,63.83
2023-03-10T04:21:50.023Z,111.78
2023-03-10T04:24:17.843Z,97.10
2023-03-10T04:26:46.382Z,91.57
2023-03-10T04:29:14.312Z,106.57
2023-03-10T04:31:43.745Z,87.18
2023-03-10T04:34:14.310Z,101.15
2023-03-10T04:36:42.134Z,83.38
2023-03-10T04:39:10.131Z,85.03
2023-03-10T04:41:37.929Z,56.55
2023-03-10T04:44:05.881Z,127.93
2023-03-10T04:46:33.996Z,84.18
2023-03-10T04:49:01.982Z,91.38
2023-03-10T04:51:29.849Z,68.10
2023-03-10T04:53:57.667Z,87.38
2023-03-10T04:56:25.475Z,67.78
2023-03-10T04:58:53.341Z,95.30
2023-03-10T05:01:21.162Z,71.35
2023-03-10T05:03:48.952Z,74.22
2023-03-10T05:06:18.762Z,48.88
2023-03-10T05:08:46.816Z,60.03
2023-03-10T05:11:15.243Z,80.88
2023-03-10T05:13:43.825Z,53.72
2023-03-10T05:16:18.991Z,71.82
2023-03-10T05:18:47.309Z,82.22
2023-03-10T05:21:15.285Z,127.85
2023-03-10T05:23:43.044Z,106.32
2023-03-10T05:26:11.926Z,99.20
2023-03-10T05:28:39.686Z,105.80
2023-03-10T05:31:15.367Z,96.18
2023-03-10T05:33:43.501Z,95.13
2023-03-10T05:36:14.929Z,141.43
2023-03-10T05:38:42.771Z,119.47
2023-03-10T05:41:11.833Z,99.90
2023-03-10T05:43:40.000Z,83.22
2023-03-10T05:46:07.695Z,87.10
2023-03-10T05:48:35.553Z,121.93
2023-03-10T05:51:12.976Z,105.60
2023-03-10T05:53:42.044Z,103.47
2023-03-10T05:56:14.929Z,88.55
2023-03-10T05:58:42.736Z,77.38
2023-03-10T06:01:10.902Z,102.65
2023-03-10T06:03:39.145Z,94.65
2023-03-10T06:06:07.215Z,105.35
2023-03-10T06:08:35.052Z,119.60
2023-03-10T06:11:02.968Z,145.85
2023-03-10T06:13:31.388Z,122.32
2023-03-10T06:16:00.727Z,97.55
2023-03-10T06:18:29.201Z,141.20
2023-03-10T06:20:57.374Z,135.93
2023-03-10T06:23:25.552Z,137.85
2023-03-10T06:25:57.911Z,175.20
2023-03-10T06:28:26.442Z,129.30
2023-03-10T06:30:58.086Z,150.05
2023-03-10T06:33:26.418Z,131.63
2023-03-10T06:35:54.605Z,118.53
2023-03-10T06:38:22.628Z,103.32
2023-03-10T06:40:50.606Z,123.50
2023-03-10T06:43:18.379Z,123.68
2023-03-10T06:45:48.772Z,122.93
2023-03-10T06:48:17.088Z,126.13
2023-03-10T06:50:50.607Z,131.88
2023-03-10T06:53:21.052Z,163.90
2023-03-10T06:56:02.748Z,148.80
2023-03-10T06:58:30.878Z,156.15
2023-03-10T07:00:58.918Z,151.05
2023-03-10T07:03:28.981Z,95.68
2023-03-10T07:05:58.621Z,121.15
2023-03-10T07:08:26.811Z,109.35
2023-03-10T07:10:55.712Z,121.85
2023-03-10T07:13:23.741Z,119.15
2023-03-10T07:15:51.446Z,133.88
2023-03-10T07:18:19.267Z,156.07
2023-03-10T07:20:48.153Z,142.35
2023-03-10T07:23:16.063Z,151.98
2023-03-10T07:25:44.075Z,146.50
2023-03-10T07:28:12.216Z,124.60
2023-03-10T07:30:40.099Z,94.22
2023-03-10T07:33:07.899Z,48.40
2023-03-10T07:35:37.067Z,74.03
2023-03-10T07:38:05.169Z,90.10
2023-03-10T07:40:33.141Z,38.03
2023-03-10T07:43:01.033Z,49.45
2023-03-10T07:45:31.029Z,67.05
2023-03-10T07:50:26.653Z,64.20
2023-03-10T07:52:55.635Z,65.45
2023-03-10T07:55:23.561Z,50.30
2023-03-10T07:57:51.563Z,47.05
2023-03-10T08:00:19.945Z,69.05
2023-03-10T08:02:47.702Z,77.40
2023-03-10T08:05:16.043Z,31.63
2023-03-10T08:07:44.125Z,47.55
2023-03-10T08:10:13.011Z,60.05
2023-03-10T08:12:40.678Z,52.28
2023-03-10T08:15:09.375Z,54.10
2023-03-10T08:17:37.988Z,55.42
2023-03-10T08:20:06.798Z,49.30
2023-03-10T08:22:34.598Z,36.63
2023-03-10T08:25:10.317Z,73.85
2023-03-10T08:27:38.240Z,42.28
2023-03-10T08:30:06.862Z,72.45
2023-03-10T08:32:34.743Z,28.52
2023-03-10T08:35:02.756Z,41.60
2023-03-10T08:37:30.667Z,42.33
2023-03-10T08:39:59.590Z,59.20
2023-03-10T08:42:27.441Z,46.20
2023-03-10T08:44:58.496Z,41.25
2023-03-10T08:47:29.318Z,36.60
2023-03-10T08:49:58.424Z,40.03
2023-03-10T08:52:26.304Z,43.20
2023-03-10T08:54:54.364Z,48.35
2023-03-10T08:57:22.236Z,67.60
2023-03-10T08:59:51.595Z,35.05
2023-03-10T09:02:22.148Z,59.72
2023-03-10T09:04:50.914Z,50.78
2023-03-10T09:07:20.212Z,43.05
2023-03-10T09:09:52.583Z,32.47
2023-03-10T09:12:21.260Z,56.63
2023-03-10T09:14:49.225Z,48.08
2023-03-10T09:17:19.450Z,46.28
2023-03-10T09:19:48.103Z,56.45
2023-03-10T09:22:16.136Z,70.97
2023-03-10T09:24:43.980Z,65.75
2023-03-10T09:27:11.898Z,68.72
2023-03-10T09:29:43.396Z,54.58
2023-03-10T09:32:18.407Z,64.63
2023-03-10T09:34:46.273Z,76.03
2023-03-10T09:37:14.190Z,76.45
2023-03-10T09:39:42.007Z,90.05
2023-03-10T09:42:38.258Z,71.20
2023-03-10T09:45:17.702Z,70.65
2023-03-10T09:48:05.046Z,92.65
2023-03-10T09:50:43.668Z,70.60
2023-03-10T09:53:35.767Z,95.32
2023-03-10T09:56:05.050Z,61.75
2023-03-10T09:58:58.167Z,145.02
2023-03-10T10:01:31.997Z,47.00
2023-03-10T10:04:32.063Z,73.85
2023-03-10T10:07:00.431Z,71.68
2023-03-10T10:09:35.896Z,114.38
2023-03-10T10:12:23.792Z,112.22
2023-03-10T10:15:17.188Z,69.07
2023-03-10T10:18:16.183Z,77.13
2023-03-10T10:21:07.427Z,97.43
2023-03-10T10:23:47.661Z,56.42
2023-03-10T10:26:18.378Z,109.28
2023-03-10T10:28:48.673Z,57.55
2023-03-10T10:31:23.371Z,68.75
2023-03-10T10:34:01.310Z,76.95
2023-03-10T10:36:51.029Z,45.25
2023-03-10T10:39:45.236Z,35.33
2023-03-10T10:42:33.500Z,46.10
2023-03-10T10:45:25.489Z,54.97
2023-03-10T10:47:55.500Z,67.45
2023-03-10T10:53:19.985Z,54.97
2023-03-10T10:56:14.715Z,62.15
2023-03-10T10:59:11.556Z,46.17
2023-03-10T11:01:56.660Z,104.95
2023-03-10T11:04:27.224Z,42.05
2023-03-10T11:07:15.610Z,41.58
2023-03-10T11:09:43.448Z,56.95
2023-03-10T11:12:12.611Z,62.85
2023-03-10T11:15:28.980Z,44.92
2023-03-10T11:18:15.539Z,41.35
2023-03-10T11:21:05.060Z,34.90
2023-03-10T11:24:03.587Z,41.92
2023-03-10T11:26:33.290Z,68.43
2023-03-10T11:29:39.410Z,51.88
2023-03-10T11:34:32.960Z,319.48
2023-03-10T11:37:06.516Z,73.15
2023-03-10T11:40:20.018Z,103.32
2023-03-10T11:42:49.657Z,71.80
2023-03-10T11:45:22.545Z,58.22
2023-03-10T11:48:05.571Z,69.47
2023-03-10T11:50:41.436Z,40.85
2023-03-10T11:53:40.850Z,53.03
2023-03-10T11:56:11.963Z,85.85
2023-03-10T11:59:29.729Z,72.03
2023-03-10T12:02:00.427Z,69.65
2023-03-10T12:04:31.649Z,53.20
2023-03-10T12:07:05.981Z,55.50
2023-03-10T12:09:36.976Z,99.32
2023-03-10T12:12:06.182Z,36.15
2023-03-10T12:14:35.156Z,115.18
2023-03-10T12:17:04.876Z,66.13
2023-03-10T12:19:32.670Z,67.93
2023-03-10T12:22:29.886Z,103.40
2023-03-10T12:24:57.900Z,148.70
2023-03-10T12:27:25.679Z,146.52
2023-03-10T12:29:53.825Z,53.55
2023-03-10T12:32:42.062Z,115.30
2023-03-10T12:35:22.176Z,101.85
2023-03-10T12:37:49.997Z,111.95
2023-03-10T12:40:36.539Z,102.40
2023-03-10T12:43:24.034Z,58.45
2023-03-10T12:45:51.828Z,64.40
2023-03-10T12:48:24.979Z,44.80
2023-03-10T12:50:57.214Z,73.95
2023-03-10T12:53:38.876Z,51.00
2023-03-10T12:56:19.250Z,89.05
2023-03-10T12:59:15.465Z,64.65
2023-03-10T13:01:55.014Z,62.35
2023-03-10T13:04:23.862Z,38.05
2023-03-10T13:06:56.896Z,29.48
2023-03-10T13:09:28.201Z,52.45
2023-03-10T13:12:02.694Z,49.20
2023-03-10T13:14:44.342Z,73.47
2023-03-10T13:17:22.944Z,71.55
2023-03-10T13:20:17.798Z,44.05
2023-03-10T13:22:59.202Z,32.05
2023-03-10T13:25:27.090Z,43.08
2023-03-10T13:27:57.619Z,45.45
2023-03-10T13:30:29.570Z,58.47
2023-03-10T13:32:59.422Z,44.03
2023-03-10T13:35:27.049Z,33.30
2023-03-10T13:38:07.958Z,66.25
2023-03-10T13:40:36.021Z,39.63
2023-03-10T13:43:04.203Z,39.08
2023-03-10T13:45:35.120Z,68.57
2023-03-10T13:48:06.317Z,48.08
2023-03-10T13:50:33.917Z,30.25
2023-03-10T13:53:02.250Z,41.47
2023-03-10T13:55:30.024Z,44.33
2023-03-10T13:57:59.791Z,43.63
2023-03-10T14:00:27.637Z,42.50
2023-03-10T14:02:56.039Z,46.35
2023-03-10T14:05:42.164Z,40.58
2023-03-10T14:08:22.304Z,35.22
2023-03-10T14:10:53.142Z,25.55
2023-03-10T14:13:39.326Z,23.45
2023-03-10T14:16:07.167Z,47.10
2023-03-10T14:18:36.104Z,73.32
2023-03-10T14:21:52.286Z,58.67
2023-03-10T14:24:28.070Z,31.17
2023-03-10T14:27:00.217Z,40.85
2023-03-10T14:29:28.246Z,37.80
2023-03-10T14:31:56.804Z,39.30
2023-03-10T14:34:24.468Z,87.85
2023-03-10T14:36:52.391Z,35.45
2023-03-10T14:39:20.472Z,49.67
2023-03-10T14:41:48.365Z,47.35
2023-03-10T14:44:16.943Z,49.50
2023-03-10T14:46:46.236Z,46.92
2023-03-10T14:49:15.681Z,28.70
2023-03-10T15:51:59.373Z,16.65
2023-03-10T15:56:54.855Z,29.27
2023-03-10T15:59:22.723Z,24.52
2023-03-10T16:01:50.413Z,21.75
2023-03-10T16:04:19.207Z,24.67
2023-03-10T16:06:47.063Z,21.15
2023-03-10T16:09:15.120Z,28.75
2023-03-10T16:11:42.911Z,15.10
2023-03-10T16:14:10.658Z,13.02
2023-03-10T16:16:38.365Z,19.40
2023-03-10T16:19:06.249Z,20.38
2023-03-10T16:21:33.960Z,16.15
2023-03-10T16:24:01.615Z,54.10
2023-03-10T16:26:29.496Z,26.98
2023-03-10T16:28:57.084Z,32.10
2023-03-10T16:31:26.382Z,15.77
2023-03-10T16:33:54.399Z,18.00
2023-03-10T16:36:23.420Z,22.33
2023-03-10T16:38:51.079Z,7.47
2023-03-10T16:41:18.952Z,11.85
2023-03-10T16:43:47.151Z,36.53
2023-03-10T16:46:17.494Z,19.35
2023-03-10T16:48:46.141Z,20.05
2023-03-10T16:51:23.081Z,15.00
2023-03-10T16:53:51.620Z,28.58
2023-03-10T16:56:19.395Z,6.35
2023-03-10T16:58:47.175Z,20.42
2023-03-10T17:01:14.980Z,7.88
2023-03-10T17:03:42.609Z,5.70
2023-03-10T17:06:11.672Z,29.40
2023-03-10T17:08:39.753Z,12.77
2023-03-10T17:11:07.782Z,13.68
2023-03-10T17:13:36.812Z,8.13
2023-03-10T17:16:12.588Z,51.28
2023-03-10T17:18:40.245Z,17.10
2023-03-10T17:21:21.605Z,21.10
2023-03-10T17:23:49.509Z,20.23
2023-03-10T17:26:17.965Z,22.95
2023-03-10T17:28:47.059Z,22.83
2023-03-10T17:31:15.642Z,11.60
2023-03-10T17:33:43.675Z,12.10
2023-03-10T17:36:14.190Z,24.10
2023-03-10T17:38:42.210Z,12.45
2023-03-10T17:41:11.792Z,27.85
2023-03-10T17:43:40.071Z,4.32
2023-03-10T17:46:08.711Z,32.05
2023-03-10T17:48:36.938Z,8.20
2023-03-10T17:51:05.530Z,8.95
2023-03-10T17:53:34.124Z,6.45
2023-03-10T17:56:08.062Z,12.93
2023-03-10T17:58:36.008Z,8.88
2023-03-10T18:01:14.083Z,11.27
2023-03-10T18:03:41.809Z,7.50
2023-03-10T18:06:13.384Z,13.20
2023-03-10T18:08:41.369Z,9.63
2023-03-10T18:11:09.440Z,10.95
2023-03-10T18:13:37.090Z,8.85
2023-03-10T18:16:05.134Z,12.50
2023-03-10T18:18:32.930Z,8.38
2023-03-10T18:21:00.640Z,24.50
2023-03-10T18:23:28.247Z,17.63
2023-03-10T18:25:56.004Z,19.52
2023-03-10T18:28:23.934Z,15.50
2023-03-10T18:30:53.043Z,10.75
2023-03-10T18:33:20.694Z,12.13
2023-03-10T18:35:48.807Z,17.48
2023-03-10T18:38:17.512Z,8.23
2023-03-10T18:40:45.356Z,13.90
2023-03-10T18:43:12.999Z,14.48
2023-03-10T18:45:40.942Z,10.10
2023-03-10T18:48:08.704Z,10.50
2023-03-10T18:50:42.819Z,12.77
2023-03-10T18:53:11.029Z,7.10
2023-03-10T18:55:39.258Z,6.25
2023-03-10T18:58:06.941Z,6.88
2023-03-10T19:00:34.665Z,17.65
2023-03-10T19:03:02.481Z,7.03
2023-03-10T19:05:30.212Z,17.48
2023-03-10T19:07:58.116Z,6.55
2023-03-10T19:10:25.806Z,13.35
2023-03-10T19:12:53.555Z,8.02
2023-03-10T19:15:21.509Z,7.65
2023-03-10T19:17:49.213Z,6.07
2023-03-10T19:20:17.608Z,5.78
2023-03-10T19:22:49.651Z,7.18
2023-03-10T19:25:17.601Z,8.32
2023-03-10T19:27:45.374Z,8.95
2023-03-10T19:30:15.958Z,9.63
2023-03-10T19:32:43.992Z,5.90
2023-03-10T19:35:12.052Z,7.43
2023-03-10T19:37:42.966Z,8.60
2023-03-10T19:40:14.360Z,9.35
2023-03-10T19:42:43.033Z,7.15
2023-03-10T19:45:15.406Z,13.02
2023-03-10T19:47:43.496Z,6.75
2023-03-10T19:50:12.479Z,9.52
2023-03-10T19:52:43.669Z,7.80
2023-03-10T19:55:14.631Z,7.75
2023-03-10T19:57:42.775Z,6.85
2023-03-10T20:00:13.943Z,7.03
2023-03-10T20:02:44.707Z,7.93
2023-03-10T20:05:15.964Z,5.72
2023-03-10T20:07:46.855Z,8.43
2023-03-10T20:10:15.038Z,9.40
2023-03-10T20:12:42.730Z,12.55
2023-03-10T20:15:10.901Z,6.90
2023-03-10T20:17:38.748Z,7.15
2023-03-10T20:20:10.829Z,7.13
2023-03-10T20:22:42.886Z,8.60
2023-03-10T20:25:11.800Z,7.50
2023-03-10T20:27:39.547Z,7.82
2023-03-10T20:30:08.639Z,7.22
2023-03-10T20:32:36.752Z,6.95
2023-03-10T20:35:05.776Z,7.82
2023-03-10T20:37:35.798Z,7.93
2023-03-10T20:42:34.116Z,5.88
2023-03-10T20:45:02.550Z,6.72
2023-03-10T20:47:30.265Z,6.82
2023-03-10T20:49:58.077Z,6.22
2023-03-10T20:52:27.309Z,5.05
2023-03-10T20:54:55.072Z,5.65
2023-03-10T20:57:22.904Z,12.13
2023-03-10T20:59:50.762Z,6.70
2023-03-10T21:02:18.916Z,5.55
2023-03-10T21:04:47.233Z,6.88
2023-03-10T21:07:14.922Z,8.07
2023-03-10T21:09:42.562Z,4.53
2023-03-10T21:12:10.228Z,7.60
2023-03-10T21:14:38.020Z,9.05
2023-03-10T21:17:06.001Z,7.95
2023-03-10T21:19:34.234Z,6.32
2023-03-10T21:22:03.454Z,6.68
2023-03-10T21:24:31.342Z,6.63
2023-03-10T21:26:59.070Z,7.72
2023-03-10T21:29:26.939Z,5.70
2023-03-10T21:31:54.794Z,4.93
2023-03-10T21:34:22.421Z,4.95
2023-03-10T21:36:50.295Z,5.47
2023-03-10T21:39:18.007Z,5.50
2023-03-10T21:41:45.912Z,5.75
2023-03-10T21:44:13.608Z,6.85
2023-03-10T21:46:41.448Z,2.80
2023-03-10T21:49:09.225Z,5.53
2023-03-10T21:51:37.873Z,4.47
2023-03-10T21:54:05.669Z,9.27
2023-03-10T21:56:33.531Z,8.45
2023-03-10T21:59:01.518Z,5.85
2023-03-10T22:01:29.366Z,6.40
2023-03-10T22:03:57.313Z,6.63
2023-03-10T22:06:24.971Z,8.80
2023-03-10T22:08:52.713Z,6.00
2023-03-10T22:11:20.506Z,6.53
2023-03-10T22:13:48.208Z,10.95
2023-03-10T22:16:16.970Z,6.25
2023-03-10T22:18:45.139Z,7.40
2023-03-10T22:21:12.993Z,5.47
2023-03-10T22:23:40.719Z,8.00
2023-03-10T22:26:09.016Z,3.53
2023-03-10T22:28:36.684Z,4.75
2023-03-10T22:31:08.293Z,4.97
2023-03-10T22:33:36.560Z,6.65
2023-03-10T22:36:06.113Z,6.45
2023-03-10T22:38:33.967Z,8.85
2023-03-10T22:41:01.649Z,8.23
2023-03-10T22:43:29.522Z,7.35
2023-03-10T22:45:59.406Z,7.13
2023-03-10T22:48:27.305Z,7.32
2023-03-10T22:50:55.143Z,9.57
2023-03-10T22:53:23.097Z,5.07
2023-03-10T22:55:51.376Z,6.90
2023-03-10T22:58:19.148Z,6.03
2023-03-10T23:00:46.920Z,4.32
2023-03-10T23:03:15.444Z,6.78
2023-03-10T23:05:45.107Z,5.03
2023-03-10T23:08:13.252Z,6.38
2023-03-10T23:10:41.688Z,4.82
2023-03-10T23:13:11.055Z,6.75
2023-03-10T23:15:38.786Z,9.75
2023-03-10T23:18:06.965Z,6.07
2023-03-10T23:20:37.655Z,9.10
2023-03-10T23:23:05.923Z,8.43
2023-03-10T23:25:35.952Z,8.63
2023-03-10T23:30:32.270Z,9.13
2023-03-10T23:33:00.212Z,4.65
2023-03-10T23:35:29.278Z,10.52
2023-03-10T23:37:57.144Z,6.53
2023-03-10T23:40:27.078Z,10.07
2023-03-10T23:42:55.606Z,4.45
2023-03-10T23:45:23.727Z,7.03
2023-03-10T23:47:52.115Z,7.10
2023-03-10T23:50:24.244Z,6.00
2023-03-10T23:52:52.010Z,8.43
2023-03-10T23:55:25.812Z,4.80
2023-03-10T23:57:53.588Z,7.00
